sensor_id;sensor_type;location;lat;lon;timestamp;temperature;humidity
69359;HTU21D;56520;49.066;8.660;2022-09-09T00:00:15;14.38;87.16
69359;HTU21D;56520;49.066;8.660;2022-09-09T00:03:14;14.42;87.18
69359;HTU21D;56520;49.066;8.660;2022-09-09T00:06:14;14.43;87.17
69359;HTU21D;56520;49.066;8.660;2022-09-09T00:16:51;14.53;86.83
69359;HTU21D;56520;49.066;8.660;2022-09-09T00:19:26;14.55;86.75
69359;HTU21D;56520;49.066;8.660;2022-09-09T00:24:44;14.57;86.83
69359;HTU21D;56520;49.066;8.660;2022-09-09T00:29:54;14.60;86.86
69359;HTU21D;56520;49.066;8.660;2022-09-09T00:32:22;14.59;86.86
69359;HTU21D;56520;49.066;8.660;2022-09-09T00:34:53;14.59;86.93
69359;HTU21D;56520;49.066;8.660;2022-09-09T00:37:20;14.58;86.92
69359;HTU21D;56520;49.066;8.660;2022-09-09T00:39:48;14.56;87.03
69359;HTU21D;56520;49.066;8.660;2022-09-09T00:50:34;14.58;87.26
69359;HTU21D;56520;49.066;8.660;2022-09-09T00:56:14;14.63;87.55
69359;HTU21D;56520;49.066;8.660;2022-09-09T00:59:00;14.63;87.57
69359;HTU21D;56520;49.066;8.660;2022-09-09T01:01:30;14.64;87.54
69359;HTU21D;56520;49.066;8.660;2022-09-09T01:03:56;14.66;87.59
69359;HTU21D;56520;49.066;8.660;2022-09-09T01:09:05;14.65;87.83
69359;HTU21D;56520;49.066;8.660;2022-09-09T01:11:44;14.65;87.84
69359;HTU21D;56520;49.066;8.660;2022-09-09T01:16:54;14.64;88.02
69359;HTU21D;56520;49.066;8.660;2022-09-09T01:19:57;14.63;88.06
69359;HTU21D;56520;49.066;8.660;2022-09-09T01:25:27;14.62;88.32
69359;HTU21D;56520;49.066;8.660;2022-09-09T01:27:48;14.59;88.31
69359;HTU21D;56520;49.066;8.660;2022-09-09T01:30:17;14.60;88.26
69359;HTU21D;56520;49.066;8.660;2022-09-09T01:32:51;14.62;88.41
69359;HTU21D;56520;49.066;8.660;2022-09-09T01:38:02;14.64;88.40
69359;HTU21D;56520;49.066;8.660;2022-09-09T01:40:27;14.68;88.36
69359;HTU21D;56520;49.066;8.660;2022-09-09T01:42:53;14.81;88.14
69359;HTU21D;56520;49.066;8.660;2022-09-09T01:45:20;15.14;85.84
69359;HTU21D;56520;49.066;8.660;2022-09-09T01:47:46;15.62;82.64
69359;HTU21D;56520;49.066;8.660;2022-09-09T01:50:15;16.02;81.24
69359;HTU21D;56520;49.066;8.660;2022-09-09T01:52:42;16.25;80.27
69359;HTU21D;56520;49.066;8.660;2022-09-09T01:55:08;16.42;79.97
69359;HTU21D;56520;49.066;8.660;2022-09-09T01:58:03;16.57;78.41
69359;HTU21D;56520;49.066;8.660;2022-09-09T02:00:23;16.64;79.66
69359;HTU21D;56520;49.066;8.660;2022-09-09T02:03:06;16.61;79.62
69359;HTU21D;56520;49.066;8.660;2022-09-09T02:06:30;16.63;79.48
69359;HTU21D;56520;49.066;8.660;2022-09-09T02:08:43;16.76;79.24
69359;HTU21D;56520;49.066;8.660;2022-09-09T02:11:18;16.66;79.88
69359;HTU21D;56520;49.066;8.660;2022-09-09T02:13:46;16.58;79.96
69359;HTU21D;56520;49.066;8.660;2022-09-09T02:18:47;16.41;80.68
69359;HTU21D;56520;49.066;8.660;2022-09-09T02:21:15;16.36;80.62
69359;HTU21D;56520;49.066;8.660;2022-09-09T02:23:42;16.31;81.10
69359;HTU21D;56520;49.066;8.660;2022-09-09T02:26:11;16.24;80.94
69359;HTU21D;56520;49.066;8.660;2022-09-09T02:28:38;16.22;80.60
69359;HTU21D;56520;49.066;8.660;2022-09-09T02:31:05;16.19;80.43
69359;HTU21D;56520;49.066;8.660;2022-09-09T02:33:40;16.18;80.33
69359;HTU21D;56520;49.066;8.660;2022-09-09T02:36:08;16.16;79.82
69359;HTU21D;56520;49.066;8.660;2022-09-09T02:38:40;16.14;80.26
69359;HTU21D;56520;49.066;8.660;2022-09-09T02:41:08;16.11;80.14
69359;HTU21D;56520;49.066;8.660;2022-09-09T02:43:34;16.07;80.32
69359;HTU21D;56520;49.066;8.660;2022-09-09T02:48:36;16.00;80.75
69359;HTU21D;56520;49.066;8.660;2022-09-09T02:51:16;15.97;81.07
69359;HTU21D;56520;49.066;8.660;2022-09-09T02:56:17;15.89;81.33
69359;HTU21D;56520;49.066;8.660;2022-09-09T02:58:43;15.88;81.53
69359;HTU21D;56520;49.066;8.660;2022-09-09T03:01:09;15.85;81.68
69359;HTU21D;56520;49.066;8.660;2022-09-09T03:03:35;15.82;81.77
69359;HTU21D;56520;49.066;8.660;2022-09-09T03:06:01;15.81;81.84
69359;HTU21D;56520;49.066;8.660;2022-09-09T03:08:26;15.77;81.94
69359;HTU21D;56520;49.066;8.660;2022-09-09T03:10:54;15.74;82.07
69359;HTU21D;56520;49.066;8.660;2022-09-09T03:13:19;15.70;82.23
69359;HTU21D;56520;49.066;8.660;2022-09-09T03:15:45;15.67;82.40
69359;HTU21D;56520;49.066;8.660;2022-09-09T03:18:10;15.63;82.58
69359;HTU21D;56520;49.066;8.660;2022-09-09T03:20:36;15.60;82.72
69359;HTU21D;56520;49.066;8.660;2022-09-09T03:23:01;15.58;82.77
69359;HTU21D;56520;49.066;8.660;2022-09-09T03:25:28;15.57;82.91
69359;HTU21D;56520;49.066;8.660;2022-09-09T03:27:54;15.56;82.94
69359;HTU21D;56520;49.066;8.660;2022-09-09T03:30:27;15.56;83.01
69359;HTU21D;56520;49.066;8.660;2022-09-09T03:32:53;15.56;83.10
69359;HTU21D;56520;49.066;8.660;2022-09-09T03:35:19;15.53;83.10
69359;HTU21D;56520;49.066;8.660;2022-09-09T03:37:44;15.52;83.20
69359;HTU21D;56520;49.066;8.660;2022-09-09T03:40:11;15.49;83.31
69359;HTU21D;56520;49.066;8.660;2022-09-09T03:42:37;15.47;83.41
69359;HTU21D;56520;49.066;8.660;2022-09-09T03:45:04;15.46;83.58
69359;HTU21D;56520;49.066;8.660;2022-09-09T03:47:30;15.43;83.58
69359;HTU21D;56520;49.066;8.660;2022-09-09T03:49:55;15.41;83.74
69359;HTU21D;56520;49.066;8.660;2022-09-09T03:52:21;15.38;83.86
69359;HTU21D;56520;49.066;8.660;2022-09-09T03:54:50;15.36;84.03
69359;HTU21D;56520;49.066;8.660;2022-09-09T03:57:16;15.33;84.10
69359;HTU21D;56520;49.066;8.660;2022-09-09T03:59:42;15.30;84.21
69359;HTU21D;56520;49.066;8.660;2022-09-09T04:02:08;15.28;84.32
69359;HTU21D;56520;49.066;8.660;2022-09-09T04:04:34;15.22;84.53
69359;HTU21D;56520;49.066;8.660;2022-09-09T04:06:59;15.19;84.66
69359;HTU21D;56520;49.066;8.660;2022-09-09T04:09:25;15.13;84.77
69359;HTU21D;56520;49.066;8.660;2022-09-09T04:11:50;15.11;85.04
69359;HTU21D;56520;49.066;8.660;2022-09-09T04:14:16;15.09;85.11
69359;HTU21D;56520;49.066;8.660;2022-09-09T04:16:42;15.06;85.13
69359;HTU21D;56520;49.066;8.660;2022-09-09T04:19:10;15.01;85.13
69359;HTU21D;56520;49.066;8.660;2022-09-09T04:21:38;14.98;85.21
69359;HTU21D;56520;49.066;8.660;2022-09-09T04:24:05;14.93;85.38
69359;HTU21D;56520;49.066;8.660;2022-09-09T04:26:31;14.89;85.51
69359;HTU21D;56520;49.066;8.660;2022-09-09T04:28:56;14.87;85.52
69359;HTU21D;56520;49.066;8.660;2022-09-09T04:31:22;14.89;85.56
69359;HTU21D;56520;49.066;8.660;2022-09-09T04:33:51;14.87;85.61
69359;HTU21D;56520;49.066;8.660;2022-09-09T04:36:17;14.89;85.64
69359;HTU21D;56520;49.066;8.660;2022-09-09T04:38:44;14.94;85.61
69359;HTU21D;56520;49.066;8.660;2022-09-09T04:41:10;14.94;85.60
69359;HTU21D;56520;49.066;8.660;2022-09-09T04:43:37;14.99;85.62
69359;HTU21D;56520;49.066;8.660;2022-09-09T04:46:03;15.01;85.70
69359;HTU21D;56520;49.066;8.660;2022-09-09T04:48:29;15.02;85.73
69359;HTU21D;56520;49.066;8.660;2022-09-09T04:51:04;15.04;85.76
69359;HTU21D;56520;49.066;8.660;2022-09-09T04:53:30;15.03;85.73
69359;HTU21D;56520;49.066;8.660;2022-09-09T04:58:32;15.01;85.85
69359;HTU21D;56520;49.066;8.660;2022-09-09T05:01:26;15.01;85.84
69359;HTU21D;56520;49.066;8.660;2022-09-09T05:03:55;14.99;85.83
69359;HTU21D;56520;49.066;8.660;2022-09-09T05:06:21;14.99;85.84
69359;HTU21D;56520;49.066;8.660;2022-09-09T05:08:47;14.98;85.77
69359;HTU21D;56520;49.066;8.660;2022-09-09T05:11:25;15.00;85.54
69359;HTU21D;56520;49.066;8.660;2022-09-09T05:13:52;15.04;85.28
69359;HTU21D;56520;49.066;8.660;2022-09-09T05:16:18;15.13;84.84
69359;HTU21D;56520;49.066;8.660;2022-09-09T05:18:44;15.21;84.31
69359;HTU21D;56520;49.066;8.660;2022-09-09T05:21:14;15.30;83.84
69359;HTU21D;56520;49.066;8.660;2022-09-09T05:23:40;15.41;83.24
69359;HTU21D;56520;49.066;8.660;2022-09-09T05:26:08;15.51;82.68
69359;HTU21D;56520;49.066;8.660;2022-09-09T05:28:34;15.60;81.96
69359;HTU21D;56520;49.066;8.660;2022-09-09T05:31:04;15.65;81.33
69359;HTU21D;56520;49.066;8.660;2022-09-09T05:33:31;15.74;80.75
69359;HTU21D;56520;49.066;8.660;2022-09-09T05:36:02;15.85;80.59
69359;HTU21D;56520;49.066;8.660;2022-09-09T05:38:28;15.91;80.52
69359;HTU21D;56520;49.066;8.660;2022-09-09T05:40:54;15.99;80.03
69359;HTU21D;56520;49.066;8.660;2022-09-09T05:43:22;16.06;80.07
69359;HTU21D;56520;49.066;8.660;2022-09-09T05:46:05;16.14;79.95
69359;HTU21D;56520;49.066;8.660;2022-09-09T05:48:32;16.24;79.08
69359;HTU21D;56520;49.066;8.660;2022-09-09T05:50:58;16.31;78.79
69359;HTU21D;56520;49.066;8.660;2022-09-09T05:53:25;16.40;77.95
69359;HTU21D;56520;49.066;8.660;2022-09-09T05:56:01;16.51;77.21
69359;HTU21D;56520;49.066;8.660;2022-09-09T05:58:29;16.58;77.16
69359;HTU21D;56520;49.066;8.660;2022-09-09T06:01:04;16.70;75.32
69359;HTU21D;56520;49.066;8.660;2022-09-09T06:03:29;16.79;75.86
69359;HTU21D;56520;49.066;8.660;2022-09-09T06:05:59;16.80;76.26
69359;HTU21D;56520;49.066;8.660;2022-09-09T06:08:25;16.78;76.55
69359;HTU21D;56520;49.066;8.660;2022-09-09T06:10:51;16.77;76.06
69359;HTU21D;56520;49.066;8.660;2022-09-09T06:13:17;16.77;76.23
69359;HTU21D;56520;49.066;8.660;2022-09-09T06:15:52;16.78;76.47
69359;HTU21D;56520;49.066;8.660;2022-09-09T06:18:18;16.81;76.63
69359;HTU21D;56520;49.066;8.660;2022-09-09T06:21:01;16.85;77.09
69359;HTU21D;56520;49.066;8.660;2022-09-09T06:23:28;16.90;77.31
69359;HTU21D;56520;49.066;8.660;2022-09-09T06:26:11;16.98;77.47
69359;HTU21D;56520;49.066;8.660;2022-09-09T06:28:37;17.07;77.58
69359;HTU21D;56520;49.066;8.660;2022-09-09T06:31:08;17.18;77.15
69359;HTU21D;56520;49.066;8.660;2022-09-09T06:33:36;17.32;76.35
69359;HTU21D;56520;49.066;8.660;2022-09-09T06:36:04;17.44;75.57
69359;HTU21D;56520;49.066;8.660;2022-09-09T06:38:30;17.58;73.83
69359;HTU21D;56520;49.066;8.660;2022-09-09T06:40:58;17.67;73.72
69359;HTU21D;56520;49.066;8.660;2022-09-09T06:43:27;17.74;73.90
69359;HTU21D;56520;49.066;8.660;2022-09-09T06:48:29;17.97;72.48
69359;HTU21D;56520;49.066;8.660;2022-09-09T06:51:21;18.05;72.48
69359;HTU21D;56520;49.066;8.660;2022-09-09T06:53:50;18.09;71.65
69359;HTU21D;56520;49.066;8.660;2022-09-09T06:58:41;18.10;72.41
69359;HTU21D;56520;49.066;8.660;2022-09-09T07:01:15;18.13;72.36
69359;HTU21D;56520;49.066;8.660;2022-09-09T07:03:41;18.19;72.66
69359;HTU21D;56520;49.066;8.660;2022-09-09T07:06:09;18.30;72.87
69359;HTU21D;56520;49.066;8.660;2022-09-09T07:08:40;18.47;72.29
69359;HTU21D;56520;49.066;8.660;2022-09-09T07:11:07;18.62;71.91
69359;HTU21D;56520;49.066;8.660;2022-09-09T07:13:33;18.81;70.53
69359;HTU21D;56520;49.066;8.660;2022-09-09T07:16:09;18.93;69.68
69359;HTU21D;56520;49.066;8.660;2022-09-09T07:18:35;19.01;70.55
69359;HTU21D;56520;49.066;8.660;2022-09-09T07:21:02;19.02;72.09
69359;HTU21D;56520;49.066;8.660;2022-09-09T07:23:29;18.91;72.32
69359;HTU21D;56520;49.066;8.660;2022-09-09T07:25:56;18.77;71.98
69359;HTU21D;56520;49.066;8.660;2022-09-09T07:28:22;18.58;72.43
69359;HTU21D;56520;49.066;8.660;2022-09-09T07:30:55;18.48;73.36
69359;HTU21D;56520;49.066;8.660;2022-09-09T07:33:21;18.41;74.10
69359;HTU21D;56520;49.066;8.660;2022-09-09T07:35:47;18.43;74.31
69359;HTU21D;56520;49.066;8.660;2022-09-09T07:38:12;18.56;72.32
69359;HTU21D;56520;49.066;8.660;2022-09-09T07:40:38;18.68;71.98
69359;HTU21D;56520;49.066;8.660;2022-09-09T07:43:04;18.82;71.50
69359;HTU21D;56520;49.066;8.660;2022-09-09T07:45:30;18.86;71.16
69359;HTU21D;56520;49.066;8.660;2022-09-09T07:47:58;18.92;70.25
69359;HTU21D;56520;49.066;8.660;2022-09-09T07:50:25;18.98;69.93
69359;HTU21D;56520;49.066;8.660;2022-09-09T07:52:51;18.97;72.29
69359;HTU21D;56520;49.066;8.660;2022-09-09T07:55:17;18.77;73.11
69359;HTU21D;56520;49.066;8.660;2022-09-09T07:57:42;18.56;74.67
69359;HTU21D;56520;49.066;8.660;2022-09-09T08:00:08;18.49;75.38
69359;HTU21D;56520;49.066;8.660;2022-09-09T08:02:35;18.53;76.19
69359;HTU21D;56520;49.066;8.660;2022-09-09T08:05:01;18.66;74.58
69359;HTU21D;56520;49.066;8.660;2022-09-09T08:07:26;18.66;75.40
69359;HTU21D;56520;49.066;8.660;2022-09-09T08:09:52;18.70;76.71
69359;HTU21D;56520;49.066;8.660;2022-09-09T08:58:23;19.97;70.55
69359;HTU21D;56520;49.066;8.660;2022-09-09T09:06:04;17.68;78.18
69359;HTU21D;56520;49.066;8.660;2022-09-09T09:11:23;17.66;80.91
69359;HTU21D;56520;49.066;8.660;2022-09-09T09:13:58;18.15;82.94
69359;HTU21D;56520;49.066;8.660;2022-09-09T09:19:14;19.02;79.56
69359;HTU21D;56520;49.066;8.660;2022-09-09T09:21:45;19.15;74.00
69359;HTU21D;56520;49.066;8.660;2022-09-09T09:24:21;19.00;77.46
69359;HTU21D;56520;49.066;8.660;2022-09-09T09:26:49;19.03;77.60
69359;HTU21D;56520;49.066;8.660;2022-09-09T09:29:18;19.21;78.70
69359;HTU21D;56520;49.066;8.660;2022-09-09T09:31:55;19.44;74.71
69359;HTU21D;56520;49.066;8.660;2022-09-09T09:34:22;19.55;74.41
69359;HTU21D;56520;49.066;8.660;2022-09-09T09:36:54;19.86;69.07
69359;HTU21D;56520;49.066;8.660;2022-09-09T09:39:32;19.95;72.37
69359;HTU21D;56520;49.066;8.660;2022-09-09T09:42:16;19.98;71.85
69359;HTU21D;56520;49.066;8.660;2022-09-09T09:44:42;19.97;71.88
69359;HTU21D;56520;49.066;8.660;2022-09-09T09:47:16;20.02;69.01
69359;HTU21D;56520;49.066;8.660;2022-09-09T09:49:52;19.87;67.80
69359;HTU21D;56520;49.066;8.660;2022-09-09T09:52:23;19.79;69.26
69359;HTU21D;56520;49.066;8.660;2022-09-09T09:54:50;19.88;68.68
69359;HTU21D;56520;49.066;8.660;2022-09-09T09:57:16;20.07;67.09
69359;HTU21D;56520;49.066;8.660;2022-09-09T09:59:43;20.25;67.23
69359;HTU21D;56520;49.066;8.660;2022-09-09T10:02:21;20.53;68.65
69359;HTU21D;56520;49.066;8.660;2022-09-09T10:05:20;20.89;65.70
69359;HTU21D;56520;49.066;8.660;2022-09-09T10:07:46;21.23;63.48
69359;HTU21D;56520;49.066;8.660;2022-09-09T10:10:17;21.40;60.34
69359;HTU21D;56520;49.066;8.660;2022-09-09T10:13:06;21.47;62.13
69359;HTU21D;56520;49.066;8.660;2022-09-09T10:35:18;22.34;57.67
69359;HTU21D;56520;49.066;8.660;2022-09-09T10:37:48;22.50;57.96
69359;HTU21D;56520;49.066;8.660;2022-09-09T10:42:56;23.08;54.29
69359;HTU21D;56520;49.066;8.660;2022-09-09T10:48:31;22.76;52.73
69359;HTU21D;56520;49.066;8.660;2022-09-09T10:56:23;21.62;56.95
69359;HTU21D;56520;49.066;8.660;2022-09-09T10:58:54;21.44;57.36
69359;HTU21D;56520;49.066;8.660;2022-09-09T11:04:05;21.21;58.78
69359;HTU21D;56520;49.066;8.660;2022-09-09T11:06:40;21.20;59.35
69359;HTU21D;56520;49.066;8.660;2022-09-09T11:09:14;21.21;59.85
69359;HTU21D;56520;49.066;8.660;2022-09-09T11:11:53;21.29;59.99
69359;HTU21D;56520;49.066;8.660;2022-09-09T11:14:21;21.85;57.52
69359;HTU21D;56520;49.066;8.660;2022-09-09T11:16:56;22.33;57.13
69359;HTU21D;56520;49.066;8.660;2022-09-09T11:19:42;22.79;54.77
69359;HTU21D;56520;49.066;8.660;2022-09-09T11:25:55;23.05;55.81
69359;HTU21D;56520;49.066;8.660;2022-09-09T11:33:41;23.66;51.18
69359;HTU21D;56520;49.066;8.660;2022-09-09T11:38:49;23.10;53.15
69359;HTU21D;56520;49.066;8.660;2022-09-09T11:41:16;23.17;54.59
69359;HTU21D;56520;49.066;8.660;2022-09-09T11:43:47;23.42;53.56
69359;HTU21D;56520;49.066;8.660;2022-09-09T11:46:15;23.54;51.60
69359;HTU21D;56520;49.066;8.660;2022-09-09T11:48:44;23.50;53.68
69359;HTU21D;56520;49.066;8.660;2022-09-09T11:54:29;23.90;52.44
69359;HTU21D;56520;49.066;8.660;2022-09-09T11:56:55;23.92;51.16
69359;HTU21D;56520;49.066;8.660;2022-09-09T11:59:27;23.84;52.04
69359;HTU21D;56520;49.066;8.660;2022-09-09T12:02:13;23.88;52.54
69359;HTU21D;56520;49.066;8.660;2022-09-09T12:04:59;24.08;52.06
69359;HTU21D;56520;49.066;8.660;2022-09-09T12:07:33;24.13;49.95
69359;HTU21D;56520;49.066;8.660;2022-09-09T12:10:33;23.92;48.91
69359;HTU21D;56520;49.066;8.660;2022-09-09T12:12:51;23.94;49.41
69359;HTU21D;56520;49.066;8.660;2022-09-09T12:15:24;24.03;49.25
69359;HTU21D;56520;49.066;8.660;2022-09-09T12:17:53;24.11;48.53
69359;HTU21D;56520;49.066;8.660;2022-09-09T12:20:21;23.94;47.40
69359;HTU21D;56520;49.066;8.660;2022-09-09T12:36:57;24.17;50.30
69359;HTU21D;56520;49.066;8.660;2022-09-09T12:39:49;24.48;48.47
69359;HTU21D;56520;49.066;8.660;2022-09-09T12:42:20;24.51;47.71
69359;HTU21D;56520;49.066;8.660;2022-09-09T12:47:43;24.31;47.13
69359;HTU21D;56520;49.066;8.660;2022-09-09T12:50:29;24.51;46.00
69359;HTU21D;56520;49.066;8.660;2022-09-09T12:52:58;24.54;47.48
69359;HTU21D;56520;49.066;8.660;2022-09-09T12:55:28;24.64;46.22
69359;HTU21D;56520;49.066;8.660;2022-09-09T12:57:56;24.66;46.82
69359;HTU21D;56520;49.066;8.660;2022-09-09T13:00:24;24.66;45.73
69359;HTU21D;56520;49.066;8.660;2022-09-09T13:05:26;24.00;47.70
69359;HTU21D;56520;49.066;8.660;2022-09-09T13:08:00;23.51;48.79
69359;HTU21D;56520;49.066;8.660;2022-09-09T13:10:29;23.00;50.52
69359;HTU21D;56520;49.066;8.660;2022-09-09T13:12:56;22.65;51.37
69359;HTU21D;56520;49.066;8.660;2022-09-09T13:15:25;22.39;51.95
69359;HTU21D;56520;49.066;8.660;2022-09-09T13:17:57;22.21;52.93
69359;HTU21D;56520;49.066;8.660;2022-09-09T13:20:26;22.11;53.28
69359;HTU21D;56520;49.066;8.660;2022-09-09T13:22:53;21.76;55.87
69359;HTU21D;56520;49.066;8.660;2022-09-09T13:25:27;21.24;58.70
69359;HTU21D;56520;49.066;8.660;2022-09-09T13:30:34;21.20;59.52
69359;HTU21D;56520;49.066;8.660;2022-09-09T13:38:24;21.47;58.80
69359;HTU21D;56520;49.066;8.660;2022-09-09T13:40:57;21.34;59.87
69359;HTU21D;56520;49.066;8.660;2022-09-09T13:43:26;21.23;60.47
69359;HTU21D;56520;49.066;8.660;2022-09-09T13:46:00;21.07;61.95
69359;HTU21D;56520;49.066;8.660;2022-09-09T13:48:26;21.01;63.67
69359;HTU21D;56520;49.066;8.660;2022-09-09T13:51:00;20.75;62.50
69359;HTU21D;56520;49.066;8.660;2022-09-09T13:53:26;20.76;63.02
69359;HTU21D;56520;49.066;8.660;2022-09-09T13:55:52;20.89;64.30
69359;HTU21D;56520;49.066;8.660;2022-09-09T13:58:18;20.90;64.46
69359;HTU21D;56520;49.066;8.660;2022-09-09T14:00:44;21.07;63.89
69359;HTU21D;56520;49.066;8.660;2022-09-09T14:03:10;21.49;62.31
69359;HTU21D;56520;49.066;8.660;2022-09-09T14:05:36;21.94;60.76
69359;HTU21D;56520;49.066;8.660;2022-09-09T14:08:06;22.32;59.41
69359;HTU21D;56520;49.066;8.660;2022-09-09T14:10:33;22.67;58.97
69359;HTU21D;56520;49.066;8.660;2022-09-09T14:13:01;22.95;58.35
69359;HTU21D;56520;49.066;8.660;2022-09-09T14:15:26;23.22;56.00
69359;HTU21D;56520;49.066;8.660;2022-09-09T14:17:52;23.22;55.39
69359;HTU21D;56520;49.066;8.660;2022-09-09T14:20:17;22.83;56.33
69359;HTU21D;56520;49.066;8.660;2022-09-09T14:22:44;22.41;56.82
69359;HTU21D;56520;49.066;8.660;2022-09-09T14:25:10;22.13;56.13
69359;HTU21D;56520;49.066;8.660;2022-09-09T14:27:38;21.82;57.18
69359;HTU21D;56520;49.066;8.660;2022-09-09T14:30:05;21.58;57.47
69359;HTU21D;56520;49.066;8.660;2022-09-09T14:32:30;21.38;58.60
69359;HTU21D;56520;49.066;8.660;2022-09-09T14:34:56;21.25;59.41
69359;HTU21D;56520;49.066;8.660;2022-09-09T14:37:21;21.14;60.10
69359;HTU21D;56520;49.066;8.660;2022-09-09T14:39:47;21.03;60.86
69359;HTU21D;56520;49.066;8.660;2022-09-09T14:42:15;20.89;61.12
69359;HTU21D;56520;49.066;8.660;2022-09-09T14:44:41;20.78;61.89
69359;HTU21D;56520;49.066;8.660;2022-09-09T14:47:07;20.64;63.09
69359;HTU21D;56520;49.066;8.660;2022-09-09T14:49:34;20.55;63.88
69359;HTU21D;56520;49.066;8.660;2022-09-09T14:52:00;20.40;65.01
69359;HTU21D;56520;49.066;8.660;2022-09-09T14:54:26;20.29;68.84
69359;HTU21D;56520;49.066;8.660;2022-09-09T14:56:51;19.30;69.97
69359;HTU21D;56520;49.066;8.660;2022-09-09T14:59:17;18.42;73.57
69359;HTU21D;56520;49.066;8.660;2022-09-09T15:01:42;17.73;75.09
69359;HTU21D;56520;49.066;8.660;2022-09-09T15:04:10;17.29;75.67
69359;HTU21D;56520;49.066;8.660;2022-09-09T15:06:36;17.07;77.74
69359;HTU21D;56520;49.066;8.660;2022-09-09T15:09:04;16.96;77.36
69359;HTU21D;56520;49.066;8.660;2022-09-09T15:11:33;16.92;78.78
69359;HTU21D;56520;49.066;8.660;2022-09-09T15:14:06;16.86;79.42
69359;HTU21D;56520;49.066;8.660;2022-09-09T15:16:32;16.79;79.93
69359;HTU21D;56520;49.066;8.660;2022-09-09T15:18:59;16.77;81.91
69359;HTU21D;56520;49.066;8.660;2022-09-09T15:21:28;16.74;82.31
69359;HTU21D;56520;49.066;8.660;2022-09-09T15:23:55;16.70;81.30
69359;HTU21D;56520;49.066;8.660;2022-09-09T15:26:20;16.58;81.81
69359;HTU21D;56520;49.066;8.660;2022-09-09T15:28:46;16.58;81.75
69359;HTU21D;56520;49.066;8.660;2022-09-09T15:31:19;16.63;82.03
69359;HTU21D;56520;49.066;8.660;2022-09-09T15:33:52;16.71;81.36
69359;HTU21D;56520;49.066;8.660;2022-09-09T15:38:43;16.95;81.39
69359;HTU21D;56520;49.066;8.660;2022-09-09T15:41:09;17.05;82.31
69359;HTU21D;56520;49.066;8.660;2022-09-09T15:43:35;17.11;82.79
69359;HTU21D;56520;49.066;8.660;2022-09-09T15:46:16;17.30;84.13
69359;HTU21D;56520;49.066;8.660;2022-09-09T15:48:47;17.41;84.13
69359;HTU21D;56520;49.066;8.660;2022-09-09T15:51:13;17.53;84.00
69359;HTU21D;56520;49.066;8.660;2022-09-09T15:53:39;17.68;84.14
69359;HTU21D;56520;49.066;8.660;2022-09-09T15:56:05;17.85;83.73
69359;HTU21D;56520;49.066;8.660;2022-09-09T15:58:32;18.04;83.45
69359;HTU21D;56520;49.066;8.660;2022-09-09T16:01:03;18.14;82.46
69359;HTU21D;56520;49.066;8.660;2022-09-09T16:03:33;18.15;79.66
69359;HTU21D;56520;49.066;8.660;2022-09-09T16:05:58;18.22;76.84
69359;HTU21D;56520;49.066;8.660;2022-09-09T16:08:25;18.25;76.41
69359;HTU21D;56520;49.066;8.660;2022-09-09T16:10:50;18.15;76.01
69359;HTU21D;56520;49.066;8.660;2022-09-09T16:13:16;18.03;76.44
69359;HTU21D;56520;49.066;8.660;2022-09-09T16:15:41;17.89;77.22
69359;HTU21D;56520;49.066;8.660;2022-09-09T16:18:07;17.72;77.13
69359;HTU21D;56520;49.066;8.660;2022-09-09T16:20:33;17.66;78.10
69359;HTU21D;56520;49.066;8.660;2022-09-09T16:22:58;17.55;76.84
69359;HTU21D;56520;49.066;8.660;2022-09-09T16:25:23;17.39;76.50
69359;HTU21D;56520;49.066;8.660;2022-09-09T16:27:49;17.30;76.82
69359;HTU21D;56520;49.066;8.660;2022-09-09T16:30:14;17.24;75.94
69359;HTU21D;56520;49.066;8.660;2022-09-09T16:32:40;17.19;76.65
69359;HTU21D;56520;49.066;8.660;2022-09-09T16:35:05;17.14;76.55
69359;HTU21D;56520;49.066;8.660;2022-09-09T16:37:31;17.08;77.02
69359;HTU21D;56520;49.066;8.660;2022-09-09T16:39:59;17.02;77.16
69359;HTU21D;56520;49.066;8.660;2022-09-09T16:42:24;16.96;77.38
69359;HTU21D;56520;49.066;8.660;2022-09-09T16:44:49;16.92;77.62
69359;HTU21D;56520;49.066;8.660;2022-09-09T16:47:15;16.87;77.55
69359;HTU21D;56520;49.066;8.660;2022-09-09T16:49:40;16.85;77.21
69359;HTU21D;56520;49.066;8.660;2022-09-09T16:52:06;16.80;77.40
69359;HTU21D;56520;49.066;8.660;2022-09-09T16:54:31;16.78;77.62
69359;HTU21D;56520;49.066;8.660;2022-09-09T16:56:58;16.77;77.60
69359;HTU21D;56520;49.066;8.660;2022-09-09T16:59:24;16.78;78.08
69359;HTU21D;56520;49.066;8.660;2022-09-09T17:01:51;16.77;77.98
69359;HTU21D;56520;49.066;8.660;2022-09-09T17:04:19;16.77;78.56
69359;HTU21D;56520;49.066;8.660;2022-09-09T17:06:47;16.73;78.83
69359;HTU21D;56520;49.066;8.660;2022-09-09T17:09:14;16.70;78.96
69359;HTU21D;56520;49.066;8.660;2022-09-09T17:11:40;16.69;79.56
69359;HTU21D;56520;49.066;8.660;2022-09-09T17:14:08;16.66;79.66
69359;HTU21D;56520;49.066;8.660;2022-09-09T17:16:35;16.63;80.08
69359;HTU21D;56520;49.066;8.660;2022-09-09T17:19:01;16.63;80.55
69359;HTU21D;56520;49.066;8.660;2022-09-09T17:21:29;16.60;81.27
69359;HTU21D;56520;49.066;8.660;2022-09-09T17:23:55;16.56;81.07
69359;HTU21D;56520;49.066;8.660;2022-09-09T17:26:23;16.51;81.16
69359;HTU21D;56520;49.066;8.660;2022-09-09T17:28:49;16.49;81.24
69359;HTU21D;56520;49.066;8.660;2022-09-09T17:31:17;16.47;81.56
69359;HTU21D;56520;49.066;8.660;2022-09-09T17:33:46;16.47;81.97
69359;HTU21D;56520;49.066;8.660;2022-09-09T17:36:18;16.44;82.30
69359;HTU21D;56520;49.066;8.660;2022-09-09T17:38:45;16.42;82.46
69359;HTU21D;56520;49.066;8.660;2022-09-09T17:41:20;16.37;82.52
69359;HTU21D;56520;49.066;8.660;2022-09-09T17:43:46;16.32;82.51
69359;HTU21D;56520;49.066;8.660;2022-09-09T17:48:43;16.27;82.39
69359;HTU21D;56520;49.066;8.660;2022-09-09T17:51:13;16.20;82.49
69359;HTU21D;56520;49.066;8.660;2022-09-09T17:53:43;16.15;82.78
69359;HTU21D;56520;49.066;8.660;2022-09-09T17:56:11;16.06;83.11
69359;HTU21D;56520;49.066;8.660;2022-09-09T17:58:37;16.03;83.37
69359;HTU21D;56520;49.066;8.660;2022-09-09T18:01:11;15.96;83.63
69359;HTU21D;56520;49.066;8.660;2022-09-09T18:03:39;15.88;83.87
69359;HTU21D;56520;49.066;8.660;2022-09-09T18:06:07;15.85;84.07
69359;HTU21D;56520;49.066;8.660;2022-09-09T18:08:34;15.81;84.35
69359;HTU21D;56520;49.066;8.660;2022-09-09T18:11:01;15.77;84.58
69359;HTU21D;56520;49.066;8.660;2022-09-09T18:13:27;15.74;84.78
69359;HTU21D;56520;49.066;8.660;2022-09-09T18:15:54;15.70;84.91
69359;HTU21D;56520;49.066;8.660;2022-09-09T18:18:20;15.66;84.94
69359;HTU21D;56520;49.066;8.660;2022-09-09T18:20:46;15.61;85.36
69359;HTU21D;56520;49.066;8.660;2022-09-09T18:23:20;15.58;85.14
69359;HTU21D;56520;49.066;8.660;2022-09-09T18:25:46;15.55;84.98
69359;HTU21D;56520;49.066;8.660;2022-09-09T18:28:11;15.54;84.98
69359;HTU21D;56520;49.066;8.660;2022-09-09T18:30:40;15.54;84.93
69359;HTU21D;56520;49.066;8.660;2022-09-09T18:33:05;15.52;84.86
69359;HTU21D;56520;49.066;8.660;2022-09-09T18:35:31;15.48;84.81